sensor_id;sensor_type;location;lat;lon;timestamp;P1;durP1;ratioP1;P2;durP2;ratioP2
31836;SDS011;18401;49.344;6.240;2022-07-29T00:02:25;8.18;;;3.03;;
31836;SDS011;18401;49.344;6.240;2022-07-29T00:04:51;6.72;;;3.75;;
31836;SDS011;18401;49.344;6.240;2022-07-29T00:07:17;9.52;;;3.78;;
31836;SDS011;18401;49.344;6.240;2022-07-29T00:09:43;6.70;;;3.45;;
31836;SDS011;18401;49.344;6.240;2022-07-29T00:12:08;6.00;;;3.10;;
31836;SDS011;18401;49.344;6.240;2022-07-29T00:14:34;5.30;;;3.30;;
31836;SDS011;18401;49.344;6.240;2022-07-29T00:17:00;3.40;;;2.95;;
31836;SDS011;18401;49.344;6.240;2022-07-29T00:19:25;4.57;;;2.92;;
31836;SDS011;18401;49.344;6.240;2022-07-29T00:21:51;4.47;;;2.70;;
31836;SDS011;18401;49.344;6.240;2022-07-29T00:24:17;4.13;;;3.08;;
31836;SDS011;18401;49.344;6.240;2022-07-29T00:26:42;3.45;;;2.60;;
31836;SDS011;18401;49.344;6.240;2022-07-29T00:29:08;5.85;;;2.72;;
31836;SDS011;18401;49.344;6.240;2022-07-29T00:31:34;2.63;;;2.42;;
31836;SDS011;18401;49.344;6.240;2022-07-29T00:33:59;3.83;;;3.08;;
31836;SDS011;18401;49.344;6.240;2022-07-29T00:36:25;8.10;;;2.67;;
31836;SDS011;18401;49.344;6.240;2022-07-29T00:38:51;4.95;;;2.70;;
31836;SDS011;18401;49.344;6.240;2022-07-29T00:41:17;3.70;;;2.38;;
31836;SDS011;18401;49.344;6.240;2022-07-29T00:43:43;3.90;;;2.67;;
31836;SDS011;18401;49.344;6.240;2022-07-29T00:46:09;6.13;;;2.85;;
31836;SDS011;18401;49.344;6.240;2022-07-29T00:48:36;8.88;;;3.17;;
31836;SDS011;18401;49.344;6.240;2022-07-29T00:51:03;8.75;;;3.42;;
31836;SDS011;18401;49.344;6.240;2022-07-29T00:53:30;6.20;;;2.70;;
31836;SDS011;18401;49.344;6.240;2022-07-29T00:55:57;6.55;;;2.92;;
31836;SDS011;18401;49.344;6.240;2022-07-29T00:58:23;5.55;;;2.80;;
31836;SDS011;18401;49.344;6.240;2022-07-29T01:00:51;4.53;;;2.90;;
31836;SDS011;18401;49.344;6.240;2022-07-29T01:03:17;4.93;;;3.28;;
31836;SDS011;18401;49.344;6.240;2022-07-29T01:05:43;6.47;;;3.50;;
31836;SDS011;18401;49.344;6.240;2022-07-29T01:08:11;5.60;;;3.38;;
31836;SDS011;18401;49.344;6.240;2022-07-29T01:10:40;4.00;;;3.25;;
31836;SDS011;18401;49.344;6.240;2022-07-29T01:13:07;4.18;;;2.97;;
31836;SDS011;18401;49.344;6.240;2022-07-29T01:15:34;3.65;;;3.30;;
31836;SDS011;18401;49.344;6.240;2022-07-29T01:18:13;4.63;;;3.20;;
31836;SDS011;18401;49.344;6.240;2022-07-29T01:20:55;4.60;;;2.90;;
31836;SDS011;18401;49.344;6.240;2022-07-29T01:29:18;3.78;;;2.88;;
31836;SDS011;18401;49.344;6.240;2022-07-29T01:34:53;4.60;;;3.60;;
31836;SDS011;18401;49.344;6.240;2022-07-29T01:37:44;3.97;;;2.90;;
31836;SDS011;18401;49.344;6.240;2022-07-29T01:40:29;4.90;;;3.30;;
31836;SDS011;18401;49.344;6.240;2022-07-29T01:45:40;4.10;;;3.30;;
31836;SDS011;18401;49.344;6.240;2022-07-29T01:48:12;11.80;;;3.20;;
31836;SDS011;18401;49.344;6.240;2022-07-29T01:50:47;6.85;;;3.10;;
31836;SDS011;18401;49.344;6.240;2022-07-29T01:53:23;6.32;;;2.88;;
31836;SDS011;18401;49.344;6.240;2022-07-29T01:55:59;7.60;;;3.50;;
31836;SDS011;18401;49.344;6.240;2022-07-29T01:58:27;5.68;;;2.92;;
31836;SDS011;18401;49.344;6.240;2022-07-29T02:00:55;5.88;;;3.05;;
31836;SDS011;18401;49.344;6.240;2022-07-29T02:03:23;6.65;;;3.50;;
31836;SDS011;18401;49.344;6.240;2022-07-29T02:05:51;8.57;;;3.70;;
31836;SDS011;18401;49.344;6.240;2022-07-29T02:08:18;4.28;;;2.95;;
31836;SDS011;18401;49.344;6.240;2022-07-29T02:10:46;4.28;;;2.97;;
31836;SDS011;18401;49.344;6.240;2022-07-29T02:13:13;5.93;;;2.88;;
31836;SDS011;18401;49.344;6.240;2022-07-29T02:15:41;3.03;;;2.83;;
31836;SDS011;18401;49.344;6.240;2022-07-29T02:18:09;5.82;;;3.60;;
31836;SDS011;18401;49.344;6.240;2022-07-29T02:20:39;5.25;;;3.10;;
31836;SDS011;18401;49.344;6.240;2022-07-29T02:23:09;2.75;;;2.53;;
31836;SDS011;18401;49.344;6.240;2022-07-29T02:25:37;4.30;;;3.53;;
31836;SDS011;18401;49.344;6.240;2022-07-29T02:28:03;8.38;;;3.17;;
31836;SDS011;18401;49.344;6.240;2022-07-29T02:30:30;7.63;;;2.97;;
31836;SDS011;18401;49.344;6.240;2022-07-29T02:32:57;4.05;;;2.95;;
31836;SDS011;18401;49.344;6.240;2022-07-29T02:35:24;5.50;;;3.08;;
31836;SDS011;18401;49.344;6.240;2022-07-29T02:37:50;5.45;;;2.83;;
31836;SDS011;18401;49.344;6.240;2022-07-29T02:43:03;5.97;;;2.90;;
31836;SDS011;18401;49.344;6.240;2022-07-29T02:45:31;5.35;;;2.90;;
31836;SDS011;18401;49.344;6.240;2022-07-29T02:47:57;5.18;;;2.53;;
31836;SDS011;18401;49.344;6.240;2022-07-29T02:50:30;7.75;;;3.65;;
31836;SDS011;18401;49.344;6.240;2022-07-29T02:53:07;3.30;;;2.80;;
31836;SDS011;18401;49.344;6.240;2022-07-29T02:55:45;3.50;;;2.80;;
31836;SDS011;18401;49.344;6.240;2022-07-29T03:00:58;5.05;;;3.50;;
31836;SDS011;18401;49.344;6.240;2022-07-29T03:03:34;8.98;;;3.08;;
31836;SDS011;18401;49.344;6.240;2022-07-29T03:06:03;3.00;;;2.80;;
31836;SDS011;18401;49.344;6.240;2022-07-29T03:08:30;7.30;;;3.03;;
31836;SDS011;18401;49.344;6.240;2022-07-29T03:10:57;3.13;;;2.83;;
31836;SDS011;18401;49.344;6.240;2022-07-29T03:13:23;4.05;;;3.03;;
31836;SDS011;18401;49.344;6.240;2022-07-29T03:15:50;4.20;;;3.03;;
31836;SDS011;18401;49.344;6.240;2022-07-29T03:18:17;6.63;;;2.67;;
31836;SDS011;18401;49.344;6.240;2022-07-29T03:20:43;7.90;;;3.47;;
31836;SDS011;18401;49.344;6.240;2022-07-29T03:23:09;7.40;;;3.55;;
31836;SDS011;18401;49.344;6.240;2022-07-29T03:25:34;6.22;;;3.58;;
31836;SDS011;18401;49.344;6.240;2022-07-29T03:28:00;5.72;;;3.10;;
31836;SDS011;18401;49.344;6.240;2022-07-29T03:30:26;5.78;;;3.33;;
31836;SDS011;18401;49.344;6.240;2022-07-29T03:32:53;8.98;;;3.05;;
31836;SDS011;18401;49.344;6.240;2022-07-29T03:35:19;6.30;;;3.70;;
31836;SDS011;18401;49.344;6.240;2022-07-29T03:37:45;5.05;;;2.90;;
31836;SDS011;18401;49.344;6.240;2022-07-29T03:40:13;4.63;;;3.08;;
31836;SDS011;18401;49.344;6.240;2022-07-29T03:42:43;6.07;;;3.25;;
31836;SDS011;18401;49.344;6.240;2022-07-29T03:45:11;5.75;;;3.60;;
31836;SDS011;18401;49.344;6.240;2022-07-29T03:47:41;7.00;;;3.50;;
31836;SDS011;18401;49.344;6.240;2022-07-29T03:50:10;6.13;;;3.08;;
31836;SDS011;18401;49.344;6.240;2022-07-29T03:52:38;4.75;;;2.63;;
31836;SDS011;18401;49.344;6.240;2022-07-29T03:55:04;7.03;;;4.05;;
31836;SDS011;18401;49.344;6.240;2022-07-29T03:57:30;4.15;;;3.15;;
31836;SDS011;18401;49.344;6.240;2022-07-29T03:59:58;4.25;;;3.15;;
31836;SDS011;18401;49.344;6.240;2022-07-29T04:02:26;6.45;;;3.65;;
31836;SDS011;18401;49.344;6.240;2022-07-29T04:04:52;5.53;;;4.03;;
31836;SDS011;18401;49.344;6.240;2022-07-29T04:07:18;6.13;;;3.30;;
31836;SDS011;18401;49.344;6.240;2022-07-29T04:09:43;5.40;;;3.50;;
31836;SDS011;18401;49.344;6.240;2022-07-29T04:12:09;5.80;;;3.72;;
31836;SDS011;18401;49.344;6.240;2022-07-29T04:14:35;6.22;;;3.92;;
31836;SDS011;18401;49.344;6.240;2022-07-29T04:17:02;15.43;;;4.15;;
31836;SDS011;18401;49.344;6.240;2022-07-29T04:19:28;6.63;;;3.85;;
31836;SDS011;18401;49.344;6.240;2022-07-29T04:21:55;6.30;;;3.65;;
31836;SDS011;18401;49.344;6.240;2022-07-29T04:24:21;7.10;;;4.25;;
31836;SDS011;18401;49.344;6.240;2022-07-29T04:26:47;13.60;;;4.28;;
31836;SDS011;18401;49.344;6.240;2022-07-29T04:29:13;4.25;;;3.63;;
31836;SDS011;18401;49.344;6.240;2022-07-29T04:31:42;9.65;;;4.25;;
31836;SDS011;18401;49.344;6.240;2022-07-29T04:34:08;6.05;;;3.65;;
31836;SDS011;18401;49.344;6.240;2022-07-29T04:36:34;4.78;;;3.28;;
31836;SDS011;18401;49.344;6.240;2022-07-29T04:38:59;5.70;;;4.22;;
31836;SDS011;18401;49.344;6.240;2022-07-29T04:41:26;4.88;;;3.65;;
31836;SDS011;18401;49.344;6.240;2022-07-29T04:43:54;8.20;;;3.63;;
31836;SDS011;18401;49.344;6.240;2022-07-29T04:46:20;4.18;;;3.55;;
31836;SDS011;18401;49.344;6.240;2022-07-29T04:48:46;3.78;;;3.25;;
31836;SDS011;18401;49.344;6.240;2022-07-29T04:51:12;4.72;;;3.15;;
31836;SDS011;18401;49.344;6.240;2022-07-29T04:53:39;5.50;;;3.60;;
31836;SDS011;18401;49.344;6.240;2022-07-29T04:56:05;6.30;;;3.70;;
31836;SDS011;18401;49.344;6.240;2022-07-29T04:58:30;6.10;;;3.83;;
31836;SDS011;18401;49.344;6.240;2022-07-29T05:00:58;8.07;;;3.38;;
31836;SDS011;18401;49.344;6.240;2022-07-29T05:03:24;4.22;;;3.45;;
31836;SDS011;18401;49.344;6.240;2022-07-29T05:05:49;6.82;;;3.42;;
31836;SDS011;18401;49.344;6.240;2022-07-29T05:08:15;5.00;;;3.13;;
31836;SDS011;18401;49.344;6.240;2022-07-29T05:10:41;5.32;;;3.50;;
31836;SDS011;18401;49.344;6.240;2022-07-29T05:13:07;4.25;;;3.70;;
31836;SDS011;18401;49.344;6.240;2022-07-29T05:15:33;3.00;;;2.70;;
31836;SDS011;18401;49.344;6.240;2022-07-29T05:18:00;8.68;;;3.20;;
31836;SDS011;18401;49.344;6.240;2022-07-29T05:20:26;7.57;;;3.10;;
31836;SDS011;18401;49.344;6.240;2022-07-29T05:22:57;7.05;;;3.33;;
31836;SDS011;18401;49.344;6.240;2022-07-29T05:25:24;4.30;;;2.95;;
31836;SDS011;18401;49.344;6.240;2022-07-29T05:27:51;4.95;;;2.97;;
31836;SDS011;18401;49.344;6.240;2022-07-29T05:30:17;7.63;;;3.33;;
31836;SDS011;18401;49.344;6.240;2022-07-29T05:32:43;9.90;;;3.42;;
31836;SDS011;18401;49.344;6.240;2022-07-29T05:35:09;5.57;;;3.75;;
31836;SDS011;18401;49.344;6.240;2022-07-29T05:37:34;10.75;;;2.75;;
31836;SDS011;18401;49.344;6.240;2022-07-29T05:40:01;8.02;;;3.53;;
31836;SDS011;18401;49.344;6.240;2022-07-29T05:42:27;4.45;;;3.35;;
31836;SDS011;18401;49.344;6.240;2022-07-29T05:44:52;8.63;;;3.20;;
31836;SDS011;18401;49.344;6.240;2022-07-29T05:47:18;3.95;;;2.88;;
31836;SDS011;18401;49.344;6.240;2022-07-29T05:49:44;4.90;;;3.47;;
31836;SDS011;18401;49.344;6.240;2022-07-29T05:52:09;6.00;;;2.40;;
31836;SDS011;18401;49.344;6.240;2022-07-29T05:54:35;4.82;;;2.50;;
31836;SDS011;18401;49.344;6.240;2022-07-29T05:57:01;5.68;;;2.38;;
31836;SDS011;18401;49.344;6.240;2022-07-29T05:59:27;5.20;;;2.45;;
31836;SDS011;18401;49.344;6.240;2022-07-29T06:01:52;5.72;;;2.95;;
31836;SDS011;18401;49.344;6.240;2022-07-29T06:04:18;8.05;;;2.45;;
31836;SDS011;18401;49.344;6.240;2022-07-29T06:06:44;5.30;;;2.60;;
31836;SDS011;18401;49.344;6.240;2022-07-29T06:09:10;6.50;;;2.50;;
31836;SDS011;18401;49.344;6.240;2022-07-29T06:11:35;3.65;;;2.10;;
31836;SDS011;18401;49.344;6.240;2022-07-29T06:14:01;3.88;;;1.98;;
31836;SDS011;18401;49.344;6.240;2022-07-29T06:16:28;3.17;;;2.15;;
31836;SDS011;18401;49.344;6.240;2022-07-29T06:18:53;3.50;;;2.47;;
31836;SDS011;18401;49.344;6.240;2022-07-29T06:21:19;2.85;;;2.20;;
31836;SDS011;18401;49.344;6.240;2022-07-29T06:23:45;4.35;;;1.70;;
31836;SDS011;18401;49.344;6.240;2022-07-29T06:26:10;3.53;;;2.00;;
31836;SDS011;18401;49.344;6.240;2022-07-29T06:28:36;6.32;;;2.20;;
31836;SDS011;18401;49.344;6.240;2022-07-29T06:31:02;3.15;;;1.55;;
31836;SDS011;18401;49.344;6.240;2022-07-29T06:33:27;3.65;;;1.88;;
31836;SDS011;18401;49.344;6.240;2022-07-29T06:35:54;7.57;;;1.80;;
31836;SDS011;18401;49.344;6.240;2022-07-29T06:38:19;3.20;;;1.85;;
31836;SDS011;18401;49.344;6.240;2022-07-29T06:40:45;3.38;;;1.83;;
31836;SDS011;18401;49.344;6.240;2022-07-29T06:43:46;3.80;;;1.77;;
31836;SDS011;18401;49.344;6.240;2022-07-29T06:46:13;7.78;;;2.17;;
31836;SDS011;18401;49.344;6.240;2022-07-29T06:48:41;8.32;;;2.15;;
31836;SDS011;18401;49.344;6.240;2022-07-29T06:51:07;3.47;;;1.50;;
31836;SDS011;18401;49.344;6.240;2022-07-29T06:53:34;3.78;;;2.00;;
31836;SDS011;18401;49.344;6.240;2022-07-29T06:56:01;2.35;;;1.50;;
31836;SDS011;18401;49.344;6.240;2022-07-29T06:58:28;6.72;;;2.55;;
31836;SDS011;18401;49.344;6.240;2022-07-29T07:00:55;5.60;;;1.58;;
31836;SDS011;18401;49.344;6.240;2022-07-29T07:03:22;5.05;;;2.08;;
31836;SDS011;18401;49.344;6.240;2022-07-29T07:05:48;10.27;;;2.22;;
31836;SDS011;18401;49.344;6.240;2022-07-29T07:08:14;5.53;;;1.55;;
31836;SDS011;18401;49.344;6.240;2022-07-29T07:10:41;10.95;;;1.63;;
31836;SDS011;18401;49.344;6.240;2022-07-29T07:13:08;4.38;;;1.58;;
31836;SDS011;18401;49.344;6.240;2022-07-29T07:15:33;7.18;;;1.52;;
31836;SDS011;18401;49.344;6.240;2022-07-29T07:18:01;5.07;;;1.80;;
31836;SDS011;18401;49.344;6.240;2022-07-29T07:20:27;3.13;;;1.25;;
31836;SDS011;18401;49.344;6.240;2022-07-29T07:22:52;3.72;;;1.83;;
31836;SDS011;18401;49.344;6.240;2022-07-29T07:25:18;8.77;;;1.40;;
31836;SDS011;18401;49.344;6.240;2022-07-29T07:27:44;4.93;;;1.65;;
31836;SDS011;18401;49.344;6.240;2022-07-29T07:30:10;3.03;;;1.63;;
31836;SDS011;18401;49.344;6.240;2022-07-29T07:32:37;4.28;;;1.40;;
31836;SDS011;18401;49.344;6.240;2022-07-29T07:35:04;5.00;;;1.40;;
31836;SDS011;18401;49.344;6.240;2022-07-29T07:37:31;4.65;;;1.48;;
31836;SDS011;18401;49.344;6.240;2022-07-29T07:39:56;4.82;;;1.30;;
31836;SDS011;18401;49.344;6.240;2022-07-29T07:42:23;4.55;;;1.58;;
31836;SDS011;18401;49.344;6.240;2022-07-29T07:44:48;5.45;;;1.42;;
31836;SDS011;18401;49.344;6.240;2022-07-29T07:47:15;2.97;;;1.40;;
31836;SDS011;18401;49.344;6.240;2022-07-29T07:49:44;3.22;;;1.35;;
31836;SDS011;18401;49.344;6.240;2022-07-29T07:52:18;4.63;;;1.25;;
31836;SDS011;18401;49.344;6.240;2022-07-29T07:54:45;8.93;;;1.52;;
31836;SDS011;18401;49.344;6.240;2022-07-29T07:57:11;4.80;;;1.52;;
31836;SDS011;18401;49.344;6.240;2022-07-29T07:59:38;9.93;;;2.15;;
31836;SDS011;18401;49.344;6.240;2022-07-29T08:02:04;8.98;;;1.30;;
31836;SDS011;18401;49.344;6.240;2022-07-29T08:04:30;3.92;;;1.50;;
31836;SDS011;18401;49.344;6.240;2022-07-29T08:06:56;4.50;;;1.42;;
31836;SDS011;18401;49.344;6.240;2022-07-29T08:09:22;1.25;;;1.13;;
31836;SDS011;18401;49.344;6.240;2022-07-29T08:11:49;2.13;;;1.13;;
31836;SDS011;18401;49.344;6.240;2022-07-29T08:14:15;7.80;;;1.30;;
31836;SDS011;18401;49.344;6.240;2022-07-29T08:16:41;4.88;;;1.48;;
31836;SDS011;18401;49.344;6.240;2022-07-29T08:19:07;1.83;;;1.10;;
31836;SDS011;18401;49.344;6.240;2022-07-29T08:21:33;1.60;;;1.38;;
31836;SDS011;18401;49.344;6.240;2022-07-29T08:23:58;5.25;;;1.48;;
31836;SDS011;18401;49.344;6.240;2022-07-29T08:26:43;4.43;;;1.40;;
31836;SDS011;18401;49.344;6.240;2022-07-29T08:29:09;4.05;;;2.42;;
31836;SDS011;18401;49.344;6.240;2022-07-29T08:31:35;5.57;;;1.60;;
31836;SDS011;18401;49.344;6.240;2022-07-29T08:34:02;4.38;;;1.42;;
31836;SDS011;18401;49.344;6.240;2022-07-29T08:36:29;4.93;;;1.80;;
31836;SDS011;18401;49.344;6.240;2022-07-29T08:38:54;2.13;;;1.27;;
31836;SDS011;18401;49.344;6.240;2022-07-29T08:41:20;3.50;;;1.30;;
31836;SDS011;18401;49.344;6.240;2022-07-29T08:43:47;2.83;;;1.20;;
31836;SDS011;18401;49.344;6.240;2022-07-29T08:46:13;5.80;;;1.15;;
31836;SDS011;18401;49.344;6.240;2022-07-29T08:48:40;10.60;;;1.70;;
31836;SDS011;18401;49.344;6.240;2022-07-29T08:51:06;2.00;;;1.35;;
31836;SDS011;18401;49.344;6.240;2022-07-29T08:53:33;1.98;;;1.33;;
31836;SDS011;18401;49.344;6.240;2022-07-29T08:55:59;3.88;;;1.52;;
31836;SDS011;18401;49.344;6.240;2022-07-29T08:58:27;5.55;;;1.63;;
31836;SDS011;18401;49.344;6.240;2022-07-29T09:00:57;3.60;;;1.50;;
31836;SDS011;18401;49.344;6.240;2022-07-29T09:03:29;1.70;;;1.13;;
31836;SDS011;18401;49.344;6.240;2022-07-29T09:05:57;7.63;;;1.05;;
31836;SDS011;18401;49.344;6.240;2022-07-29T09:08:24;5.82;;;1.27;;
31836;SDS011;18401;49.344;6.240;2022-07-29T09:10:50;1.52;;;1.05;;
31836;SDS011;18401;49.344;6.240;2022-07-29T09:13:16;4.03;;;1.70;;
31836;SDS011;18401;49.344;6.240;2022-07-29T09:15:43;4.55;;;1.13;;
31836;SDS011;18401;49.344;6.240;2022-07-29T09:18:09;8.98;;;1.35;;
31836;SDS011;18401;49.344;6.240;2022-07-29T09:20:35;6.82;;;1.40;;
31836;SDS011;18401;49.344;6.240;2022-07-29T09:23:19;7.68;;;1.88;;
31836;SDS011;18401;49.344;6.240;2022-07-29T09:25:44;9.20;;;1.33;;
31836;SDS011;18401;49.344;6.240;2022-07-29T09:28:12;2.95;;;1.27;;
31836;SDS011;18401;49.344;6.240;2022-07-29T09:30:52;4.18;;;1.75;;
31836;SDS011;18401;49.344;6.240;2022-07-29T09:33:18;3.35;;;1.40;;
31836;SDS011;18401;49.344;6.240;2022-07-29T09:35:45;3.92;;;1.40;;
31836;SDS011;18401;49.344;6.240;2022-07-29T09:38:23;3.58;;;1.60;;
31836;SDS011;18401;49.344;6.240;2022-07-29T09:40:58;5.53;;;1.60;;
31836;SDS011;18401;49.344;6.240;2022-07-29T09:43:24;5.35;;;1.55;;
31836;SDS011;18401;49.344;6.240;2022-07-29T09:45:50;7.55;;;1.70;;
31836;SDS011;18401;49.344;6.240;2022-07-29T09:48:17;7.03;;;1.80;;
31836;SDS011;18401;49.344;6.240;2022-07-29T09:50:45;8.63;;;1.70;;
31836;SDS011;18401;49.344;6.240;2022-07-29T09:53:29;5.13;;;1.70;;
31836;SDS011;18401;49.344;6.240;2022-07-29T09:55:59;5.13;;;1.67;;
31836;SDS011;18401;49.344;6.240;2022-07-29T09:58:25;10.75;;;1.50;;
31836;SDS011;18401;49.344;6.240;2022-07-29T10:00:52;7.45;;;1.70;;
31836;SDS011;18401;49.344;6.240;2022-07-29T10:03:18;7.45;;;1.35;;
31836;SDS011;18401;49.344;6.240;2022-07-29T10:05:44;5.00;;;1.52;;
31836;SDS011;18401;49.344;6.240;2022-07-29T10:08:11;5.35;;;1.10;;
31836;SDS011;18401;49.344;6.240;2022-07-29T10:10:41;3.50;;;1.30;;
31836;SDS011;18401;49.344;6.240;2022-07-29T10:13:12;6.03;;;1.30;;
31836;SDS011;18401;49.344;6.240;2022-07-29T10:15:39;6.82;;;1.30;;
31836;SDS011;18401;49.344;6.240;2022-07-29T10:18:08;6.05;;;1.23;;
31836;SDS011;18401;49.344;6.240;2022-07-29T10:20:34;10.80;;;1.38;;
31836;SDS011;18401;49.344;6.240;2022-07-29T10:23:00;4.97;;;1.25;;
31836;SDS011;18401;49.344;6.240;2022-07-29T10:25:26;3.72;;;1.17;;
31836;SDS011;18401;49.344;6.240;2022-07-29T10:27:52;11.85;;;1.15;;
31836;SDS011;18401;49.344;6.240;2022-07-29T10:30:20;5.32;;;1.30;;
31836;SDS011;18401;49.344;6.240;2022-07-29T10:41:33;3.88;;;1.30;;
31836;SDS011;18401;49.344;6.240;2022-07-29T10:44:09;2.47;;;1.50;;
31836;SDS011;18401;49.344;6.240;2022-07-29T10:46:40;3.25;;;1.08;;
31836;SDS011;18401;49.344;6.240;2022-07-29T10:52:15;5.63;;;1.30;;
31836;SDS011;18401;49.344;6.240;2022-07-29T10:57:37;12.23;;;1.63;;
31836;SDS011;18401;49.344;6.240;2022-07-29T11:07:33;7.78;;;1.30;;
31836;SDS011;18401;49.344;6.240;2022-07-29T11:15:04;3.45;;;1.30;;
31836;SDS011;18401;49.344;6.240;2022-07-29T11:22:58;4.30;;;1.15;;
31836;SDS011;18401;49.344;6.240;2022-07-29T11:25:24;3.35;;;1.17;;
31836;SDS011;18401;49.344;6.240;2022-07-29T11:27:51;6.03;;;1.40;;
31836;SDS011;18401;49.344;6.240;2022-07-29T11:30:19;3.47;;;1.45;;
31836;SDS011;18401;49.344;6.240;2022-07-29T11:32:45;4.25;;;1.27;;
31836;SDS011;18401;49.344;6.240;2022-07-29T11:35:13;3.95;;;1.67;;
31836;SDS011;18401;49.344;6.240;2022-07-29T11:37:47;2.85;;;1.02;;
31836;SDS011;18401;49.344;6.240;2022-07-29T11:43:47;3.33;;;1.25;;
31836;SDS011;18401;49.344;6.240;2022-07-29T11:49:25;5.97;;;1.10;;
31836;SDS011;18401;49.344;6.240;2022-07-29T11:51:55;5.13;;;1.23;;
31836;SDS011;18401;49.344;6.240;2022-07-29T11:54:23;8.38;;;1.35;;
31836;SDS011;18401;49.344;6.240;2022-07-29T11:56:52;2.65;;;1.15;;
31836;SDS011;18401;49.344;6.240;2022-07-29T11:59:18;5.50;;;1.52;;
31836;SDS011;18401;49.344;6.240;2022-07-29T12:01:58;1.35;;;1.00;;
31836;SDS011;18401;49.344;6.240;2022-07-29T12:04:24;4.18;;;1.23;;
31836;SDS011;18401;49.344;6.240;2022-07-29T12:06:52;7.07;;;1.55;;
31836;SDS011;18401;49.344;6.240;2022-07-29T12:09:19;3.50;;;1.10;;
31836;SDS011;18401;49.344;6.240;2022-07-29T12:11:46;2.13;;;1.20;;
31836;SDS011;18401;49.344;6.240;2022-07-29T12:14:28;7.72;;;1.15;;
31836;SDS011;18401;49.344;6.240;2022-07-29T12:16:56;8.40;;;1.42;;
31836;SDS011;18401;49.344;6.240;2022-07-29T12:19:22;5.90;;;1.20;;
31836;SDS011;18401;49.344;6.240;2022-07-29T12:24:15;7.80;;;1.58;;
31836;SDS011;18401;49.344;6.240;2022-07-29T12:26:54;1.90;;;1.05;;
31836;SDS011;18401;49.344;6.240;2022-07-29T12:29:24;3.40;;;1.23;;
31836;SDS011;18401;49.344;6.240;2022-07-29T12:31:52;4.20;;;1.20;;
31836;SDS011;18401;49.344;6.240;2022-07-29T12:34:19;5.30;;;1.42;;
31836;SDS011;18401;49.344;6.240;2022-07-29T12:36:48;5.32;;;1.52;;
31836;SDS011;18401;49.344;6.240;2022-07-29T12:39:15;9.77;;;1.60;;
31836;SDS011;18401;49.344;6.240;2022-07-29T12:41:42;2.95;;;1.38;;
31836;SDS011;18401;49.344;6.240;2022-07-29T12:44:08;2.00;;;1.50;;
31836;SDS011;18401;49.344;6.240;2022-07-29T12:46:34;1.75;;;1.10;;
31836;SDS011;18401;49.344;6.240;2022-07-29T12:48:59;2.92;;;1.23;;
31836;SDS011;18401;49.344;6.240;2022-07-29T12:51:29;8.48;;;1.20;;
31836;SDS011;18401;49.344;6.240;2022-07-29T12:54:17;3.78;;;1.45;;
31836;SDS011;18401;49.344;6.240;2022-07-29T12:56:43;5.35;;;1.23;;
31836;SDS011;18401;49.344;6.240;2022-07-29T12:59:13;11.13;;;1.40;;
31836;SDS011;18401;49.344;6.240;2022-07-29T13:01:44;3.33;;;1.33;;
31836;SDS011;18401;49.344;6.240;2022-07-29T13:04:27;1.60;;;1.10;;
31836;SDS011;18401;49.344;6.240;2022-07-29T13:07:01;3.35;;;1.27;;
31836;SDS011;18401;49.344;6.240;2022-07-29T13:12:08;5.07;;;1.23;;
31836;SDS011;18401;49.344;6.240;2022-07-29T13:14:36;1.50;;;0.93;;
31836;SDS011;18401;49.344;6.240;2022-07-29T13:17:05;1.50;;;1.10;;
31836;SDS011;18401;49.344;6.240;2022-07-29T13:19:42;9.07;;;1.10;;
31836;SDS011;18401;49.344;6.240;2022-07-29T13:22:11;5.28;;;1.48;;
31836;SDS011;18401;49.344;6.240;2022-07-29T13:27:23;3.28;;;1.23;;
31836;SDS011;18401;49.344;6.240;2022-07-29T13:29:50;1.73;;;0.98;;
31836;SDS011;18401;49.344;6.240;2022-07-29T13:32:18;6.72;;;1.23;;
31836;SDS011;18401;49.344;6.240;2022-07-29T13:34:44;2.95;;;1.15;;
31836;SDS011;18401;49.344;6.240;2022-07-29T13:37:10;5.85;;;1.15;;
31836;SDS011;18401;49.344;6.240;2022-07-29T13:39:36;3.92;;;1.15;;
31836;SDS011;18401;49.344;6.240;2022-07-29T13:42:05;8.25;;;1.23;;
31836;SDS011;18401;49.344;6.240;2022-07-29T13:44:32;4.07;;;1.27;;
31836;SDS011;18401;49.344;6.240;2022-07-29T13:46:57;5.88;;;0.90;;
31836;SDS011;18401;49.344;6.240;2022-07-29T13:49:26;4.55;;;0.80;;
31836;SDS011;18401;49.344;6.240;2022-07-29T13:51:52;0.93;;;0.90;;
31836;SDS011;18401;49.344;6.240;2022-07-29T13:54:18;2.85;;;1.10;;
31836;SDS011;18401;49.344;6.240;2022-07-29T13:56:44;4.38;;;1.20;;
31836;SDS011;18401;49.344;6.240;2022-07-29T13:59:10;3.35;;;1.05;;
31836;SDS011;18401;49.344;6.240;2022-07-29T14:01:37;4.32;;;1.10;;
31836;SDS011;18401;49.344;6.240;2022-07-29T14:04:03;10.30;;;1.10;;
31836;SDS011;18401;49.344;6.240;2022-07-29T14:06:29;6.18;;;0.93;;
31836;SDS011;18401;49.344;6.240;2022-07-29T14:08:55;3.70;;;1.13;;
31836;SDS011;18401;49.344;6.240;2022-07-29T14:11:20;11.13;;;1.38;;
31836;SDS011;18401;49.344;6.240;2022-07-29T14:13:46;3.03;;;1.00;;
31836;SDS011;18401;49.344;6.240;2022-07-29T14:16:12;4.75;;;1.20;;
31836;SDS011;18401;49.344;6.240;2022-07-29T14:18:38;6.13;;;1.13;;
31836;SDS011;18401;49.344;6.240;2022-07-29T14:21:03;8.77;;;1.23;;
31836;SDS011;18401;49.344;6.240;2022-07-29T14:23:29;2.20;;;0.85;;
31836;SDS011;18401;49.344;6.240;2022-07-29T14:25:55;6.10;;;1.00;;
31836;SDS011;18401;49.344;6.240;2022-07-29T14:28:20;6.95;;;1.48;;
31836;SDS011;18401;49.344;6.240;2022-07-29T14:30:46;2.95;;;1.02;;
31836;SDS011;18401;49.344;6.240;2022-07-29T14:33:12;1.67;;;1.10;;
31836;SDS011;18401;49.344;6.240;2022-07-29T14:35:39;2.47;;;1.13;;
31836;SDS011;18401;49.344;6.240;2022-07-29T14:38:04;4.72;;;1.20;;
31836;SDS011;18401;49.344;6.240;2022-07-29T14:40:30;5.30;;;1.00;;
31836;SDS011;18401;49.344;6.240;2022-07-29T14:42:55;10.77;;;1.05;;
31836;SDS011;18401;49.344;6.240;2022-07-29T14:45:21;2.97;;;0.90;;
31836;SDS011;18401;49.344;6.240;2022-07-29T14:47:47;2.58;;;0.88;;
31836;SDS011;18401;49.344;6.240;2022-07-29T14:50:15;1.73;;;0.85;;
31836;SDS011;18401;49.344;6.240;2022-07-29T14:52:41;2.33;;;0.85;;
31836;SDS011;18401;49.344;6.240;2022-07-29T14:55:07;2.47;;;0.90;;
31836;SDS011;18401;49.344;6.240;2022-07-29T14:57:32;2.70;;;0.98;;
31836;SDS011;18401;49.344;6.240;2022-07-29T14:59:58;1.70;;;0.90;;
31836;SDS011;18401;49.344;6.240;2022-07-29T15:02:24;4.70;;;0.90;;
31836;SDS011;18401;49.344;6.240;2022-07-29T15:04:49;2.50;;;0.90;;
31836;SDS011;18401;49.344;6.240;2022-07-29T15:07:15;1.35;;;0.63;;
31836;SDS011;18401;49.344;6.240;2022-07-29T15:09:41;9.25;;;0.90;;
31836;SDS011;18401;49.344;6.240;2022-07-29T15:12:10;3.03;;;0.85;;
31836;SDS011;18401;49.344;6.240;2022-07-29T15:14:36;3.70;;;0.75;;
31836;SDS011;18401;49.344;6.240;2022-07-29T15:17:02;4.40;;;1.02;;
31836;SDS011;18401;49.344;6.240;2022-07-29T15:19:27;3.80;;;1.23;;
31836;SDS011;18401;49.344;6.240;2022-07-29T15:21:55;4.05;;;1.10;;
31836;SDS011;18401;49.344;6.240;2022-07-29T15:24:21;6.65;;;1.25;;
31836;SDS011;18401;49.344;6.240;2022-07-29T15:26:47;3.40;;;0.80;;
31836;SDS011;18401;49.344;6.240;2022-07-29T15:29:13;4.07;;;0.85;;
31836;SDS011;18401;49.344;6.240;2022-07-29T15:31:39;2.08;;;0.95;;
31836;SDS011;18401;49.344;6.240;2022-07-29T15:34:04;1.73;;;0.88;;
31836;SDS011;18401;49.344;6.240;2022-07-29T15:36:30;5.25;;;1.33;;
31836;SDS011;18401;49.344;6.240;2022-07-29T15:38:56;6.10;;;0.80;;
31836;SDS011;18401;49.344;6.240;2022-07-29T15:41:22;3.08;;;0.77;;
31836;SDS011;18401;49.344;6.240;2022-07-29T15:43:48;7.93;;;1.02;;
31836;SDS011;18401;49.344;6.240;2022-07-29T15:46:16;4.22;;;0.98;;
31836;SDS011;18401;49.344;6.240;2022-07-29T15:49:01;3.33;;;0.93;;
31836;SDS011;18401;49.344;6.240;2022-07-29T15:51:28;6.22;;;1.00;;
31836;SDS011;18401;49.344;6.240;2022-07-29T15:53:53;4.80;;;0.95;;
31836;SDS011;18401;49.344;6.240;2022-07-29T15:56:19;1.63;;;0.70;;